sensor_id;sensor_type;location;lat;lon;timestamp;P1;durP1;ratioP1;P2;durP2;ratioP2
69588;SDS011;56792;50.644;17.984;2023-05-14T00:02:05;8.90;;;4.90;;
69588;SDS011;56792;50.644;17.984;2023-05-14T00:04:33;7.30;;;4.40;;
69588;SDS011;56792;50.644;17.984;2023-05-14T00:07:02;7.90;;;5.20;;
69588;SDS011;56792;50.644;17.984;2023-05-14T00:09:30;8.20;;;5.20;;
69588;SDS011;56792;50.644;17.984;2023-05-14T00:11:58;8.30;;;4.80;;
69588;SDS011;56792;50.644;17.984;2023-05-14T00:14:27;9.50;;;5.30;;
69588;SDS011;56792;50.644;17.984;2023-05-14T00:16:55;9.80;;;5.20;;
69588;SDS011;56792;50.644;17.984;2023-05-14T00:19:25;10.30;;;5.20;;
69588;SDS011;56792;50.644;17.984;2023-05-14T00:21:53;10.00;;;5.40;;
69588;SDS011;56792;50.644;17.984;2023-05-14T00:24:21;8.70;;;5.10;;
69588;SDS011;56792;50.644;17.984;2023-05-14T00:26:50;9.00;;;5.50;;
69588;SDS011;56792;50.644;17.984;2023-05-14T00:29:18;10.30;;;5.80;;
69588;SDS011;56792;50.644;17.984;2023-05-14T00:31:46;9.00;;;5.50;;
69588;SDS011;56792;50.644;17.984;2023-05-14T00:34:15;8.70;;;5.60;;
69588;SDS011;56792;50.644;17.984;2023-05-14T00:36:43;9.20;;;5.70;;
69588;SDS011;56792;50.644;17.984;2023-05-14T00:39:12;8.40;;;5.40;;
69588;SDS011;56792;50.644;17.984;2023-05-14T00:41:40;9.00;;;5.60;;
69588;SDS011;56792;50.644;17.984;2023-05-14T00:44:08;9.70;;;5.90;;
69588;SDS011;56792;50.644;17.984;2023-05-14T00:46:36;8.10;;;5.40;;
69588;SDS011;56792;50.644;17.984;2023-05-14T00:49:05;8.80;;;5.30;;
69588;SDS011;56792;50.644;17.984;2023-05-14T00:51:33;8.30;;;4.90;;
69588;SDS011;56792;50.644;17.984;2023-05-14T00:54:02;8.40;;;5.80;;
69588;SDS011;56792;50.644;17.984;2023-05-14T00:56:31;8.70;;;5.70;;
69588;SDS011;56792;50.644;17.984;2023-05-14T00:59:00;9.10;;;5.20;;
69588;SDS011;56792;50.644;17.984;2023-05-14T01:01:28;9.00;;;5.20;;
69588;SDS011;56792;50.644;17.984;2023-05-14T01:03:57;8.90;;;5.40;;
69588;SDS011;56792;50.644;17.984;2023-05-14T01:06:31;8.10;;;5.30;;
69588;SDS011;56792;50.644;17.984;2023-05-14T01:09:11;10.30;;;5.50;;
69588;SDS011;56792;50.644;17.984;2023-05-14T01:11:51;10.80;;;5.80;;
69588;SDS011;56792;50.644;17.984;2023-05-14T01:14:39;8.30;;;5.60;;
69588;SDS011;56792;50.644;17.984;2023-05-14T01:17:11;11.00;;;5.80;;
69588;SDS011;56792;50.644;17.984;2023-05-14T01:19:47;8.40;;;5.60;;
69588;SDS011;56792;50.644;17.984;2023-05-14T01:22:18;11.70;;;5.80;;
69588;SDS011;56792;50.644;17.984;2023-05-14T01:24:46;8.60;;;5.60;;
69588;SDS011;56792;50.644;17.984;2023-05-14T01:27:17;9.20;;;5.50;;
69588;SDS011;56792;50.644;17.984;2023-05-14T01:29:54;8.80;;;5.50;;
69588;SDS011;56792;50.644;17.984;2023-05-14T01:32:29;9.50;;;5.60;;
69588;SDS011;56792;50.644;17.984;2023-05-14T01:35:00;9.20;;;5.50;;
69588;SDS011;56792;50.644;17.984;2023-05-14T01:37:30;9.40;;;6.40;;
69588;SDS011;56792;50.644;17.984;2023-05-14T01:39:59;9.00;;;5.40;;
69588;SDS011;56792;50.644;17.984;2023-05-14T01:42:28;11.30;;;6.20;;
69588;SDS011;56792;50.644;17.984;2023-05-14T01:44:57;11.80;;;6.20;;
69588;SDS011;56792;50.644;17.984;2023-05-14T01:47:26;14.80;;;6.30;;
69588;SDS011;56792;50.644;17.984;2023-05-14T01:49:55;10.50;;;5.20;;
69588;SDS011;56792;50.644;17.984;2023-05-14T01:52:23;11.80;;;6.10;;
69588;SDS011;56792;50.644;17.984;2023-05-14T01:54:51;9.80;;;5.70;;
69588;SDS011;56792;50.644;17.984;2023-05-14T01:57:19;12.70;;;6.30;;
69588;SDS011;56792;50.644;17.984;2023-05-14T01:59:48;11.90;;;6.20;;
69588;SDS011;56792;50.644;17.984;2023-05-14T02:02:16;10.10;;;5.90;;
69588;SDS011;56792;50.644;17.984;2023-05-14T02:04:44;8.40;;;5.30;;
69588;SDS011;56792;50.644;17.984;2023-05-14T02:07:12;11.40;;;6.30;;
69588;SDS011;56792;50.644;17.984;2023-05-14T02:09:41;10.60;;;6.70;;
69588;SDS011;56792;50.644;17.984;2023-05-14T02:12:10;11.10;;;7.70;;
69588;SDS011;56792;50.644;17.984;2023-05-14T02:14:38;13.30;;;8.60;;
69588;SDS011;56792;50.644;17.984;2023-05-14T02:17:06;10.40;;;7.10;;
69588;SDS011;56792;50.644;17.984;2023-05-14T02:19:34;10.80;;;6.70;;
69588;SDS011;56792;50.644;17.984;2023-05-14T02:22:03;10.30;;;6.70;;
69588;SDS011;56792;50.644;17.984;2023-05-14T02:24:33;10.80;;;6.20;;
69588;SDS011;56792;50.644;17.984;2023-05-14T02:27:01;13.10;;;5.90;;
69588;SDS011;56792;50.644;17.984;2023-05-14T02:29:29;11.40;;;6.40;;
69588;SDS011;56792;50.644;17.984;2023-05-14T02:31:58;12.30;;;6.90;;
69588;SDS011;56792;50.644;17.984;2023-05-14T02:34:26;11.90;;;6.50;;
69588;SDS011;56792;50.644;17.984;2023-05-14T02:36:55;10.70;;;6.60;;
69588;SDS011;56792;50.644;17.984;2023-05-14T02:39:23;12.90;;;7.00;;
69588;SDS011;56792;50.644;17.984;2023-05-14T02:41:51;12.30;;;6.70;;
69588;SDS011;56792;50.644;17.984;2023-05-14T02:44:20;14.30;;;6.70;;
69588;SDS011;56792;50.644;17.984;2023-05-14T02:46:48;12.30;;;6.70;;
69588;SDS011;56792;50.644;17.984;2023-05-14T02:49:17;11.50;;;6.40;;
69588;SDS011;56792;50.644;17.984;2023-05-14T02:51:45;10.80;;;5.90;;
69588;SDS011;56792;50.644;17.984;2023-05-14T02:54:13;11.40;;;6.40;;
69588;SDS011;56792;50.644;17.984;2023-05-14T02:56:42;12.20;;;7.10;;
69588;SDS011;56792;50.644;17.984;2023-05-14T02:59:10;11.70;;;6.70;;
69588;SDS011;56792;50.644;17.984;2023-05-14T03:01:38;12.90;;;7.10;;
69588;SDS011;56792;50.644;17.984;2023-05-14T03:04:06;12.60;;;7.60;;
69588;SDS011;56792;50.644;17.984;2023-05-14T03:06:35;15.40;;;8.40;;
69588;SDS011;56792;50.644;17.984;2023-05-14T03:09:03;15.10;;;8.50;;
69588;SDS011;56792;50.644;17.984;2023-05-14T03:11:31;11.50;;;7.70;;
69588;SDS011;56792;50.644;17.984;2023-05-14T03:13:59;12.00;;;7.40;;
69588;SDS011;56792;50.644;17.984;2023-05-14T03:16:28;11.90;;;7.40;;
69588;SDS011;56792;50.644;17.984;2023-05-14T03:18:56;11.30;;;7.00;;
69588;SDS011;56792;50.644;17.984;2023-05-14T03:21:24;13.60;;;7.90;;
69588;SDS011;56792;50.644;17.984;2023-05-14T03:23:53;12.30;;;8.20;;
69588;SDS011;56792;50.644;17.984;2023-05-14T03:26:21;11.90;;;7.30;;
69588;SDS011;56792;50.644;17.984;2023-05-14T03:28:53;12.90;;;7.10;;
69588;SDS011;56792;50.644;17.984;2023-05-14T03:31:21;12.50;;;6.40;;
69588;SDS011;56792;50.644;17.984;2023-05-14T03:33:50;10.50;;;6.80;;
69588;SDS011;56792;50.644;17.984;2023-05-14T03:36:18;14.10;;;7.40;;
69588;SDS011;56792;50.644;17.984;2023-05-14T03:38:47;12.10;;;6.80;;
69588;SDS011;56792;50.644;17.984;2023-05-14T03:41:15;11.10;;;7.00;;
69588;SDS011;56792;50.644;17.984;2023-05-14T03:43:45;11.40;;;6.80;;
69588;SDS011;56792;50.644;17.984;2023-05-14T03:46:13;12.10;;;6.90;;
69588;SDS011;56792;50.644;17.984;2023-05-14T03:48:42;10.80;;;6.80;;
69588;SDS011;56792;50.644;17.984;2023-05-14T03:51:10;11.50;;;6.70;;
69588;SDS011;56792;50.644;17.984;2023-05-14T03:53:38;11.40;;;6.50;;
69588;SDS011;56792;50.644;17.984;2023-05-14T03:56:07;12.40;;;7.60;;
69588;SDS011;56792;50.644;17.984;2023-05-14T03:58:35;10.90;;;6.60;;
69588;SDS011;56792;50.644;17.984;2023-05-14T04:01:04;11.80;;;7.00;;
69588;SDS011;56792;50.644;17.984;2023-05-14T04:03:32;13.40;;;7.40;;
69588;SDS011;56792;50.644;17.984;2023-05-14T04:06:01;13.00;;;6.80;;
69588;SDS011;56792;50.644;17.984;2023-05-14T04:08:29;11.10;;;7.20;;
69588;SDS011;56792;50.644;17.984;2023-05-14T04:10:57;12.30;;;7.20;;
69588;SDS011;56792;50.644;17.984;2023-05-14T04:13:25;11.30;;;7.30;;
69588;SDS011;56792;50.644;17.984;2023-05-14T04:15:54;12.00;;;7.30;;
69588;SDS011;56792;50.644;17.984;2023-05-14T04:18:22;13.90;;;7.20;;
69588;SDS011;56792;50.644;17.984;2023-05-14T04:20:51;13.50;;;7.70;;
69588;SDS011;56792;50.644;17.984;2023-05-14T04:23:20;11.40;;;7.40;;
69588;SDS011;56792;50.644;17.984;2023-05-14T04:25:48;11.10;;;7.00;;
69588;SDS011;56792;50.644;17.984;2023-05-14T04:28:16;11.40;;;7.30;;
69588;SDS011;56792;50.644;17.984;2023-05-14T04:30:45;12.60;;;7.30;;
69588;SDS011;56792;50.644;17.984;2023-05-14T04:33:14;13.80;;;7.70;;
69588;SDS011;56792;50.644;17.984;2023-05-14T04:35:43;12.00;;;7.70;;
69588;SDS011;56792;50.644;17.984;2023-05-14T04:38:11;11.40;;;7.30;;
69588;SDS011;56792;50.644;17.984;2023-05-14T04:40:40;12.30;;;7.20;;
69588;SDS011;56792;50.644;17.984;2023-05-14T04:43:08;12.10;;;7.50;;
69588;SDS011;56792;50.644;17.984;2023-05-14T04:45:36;10.00;;;6.90;;
69588;SDS011;56792;50.644;17.984;2023-05-14T04:48:06;12.30;;;7.90;;
69588;SDS011;56792;50.644;17.984;2023-05-14T04:50:34;11.90;;;7.20;;
69588;SDS011;56792;50.644;17.984;2023-05-14T04:53:03;11.60;;;6.80;;
69588;SDS011;56792;50.644;17.984;2023-05-14T04:55:31;11.70;;;6.70;;
69588;SDS011;56792;50.644;17.984;2023-05-14T04:57:59;12.30;;;7.80;;
69588;SDS011;56792;50.644;17.984;2023-05-14T05:00:28;11.90;;;6.60;;
69588;SDS011;56792;50.644;17.984;2023-05-14T05:02:56;11.30;;;6.60;;
69588;SDS011;56792;50.644;17.984;2023-05-14T05:05:25;11.60;;;7.40;;
69588;SDS011;56792;50.644;17.984;2023-05-14T05:07:53;11.40;;;7.60;;
69588;SDS011;56792;50.644;17.984;2023-05-14T05:10:22;12.80;;;6.70;;
69588;SDS011;56792;50.644;17.984;2023-05-14T05:12:50;11.50;;;7.60;;
69588;SDS011;56792;50.644;17.984;2023-05-14T05:15:19;12.60;;;7.20;;
69588;SDS011;56792;50.644;17.984;2023-05-14T05:17:47;11.20;;;6.30;;
69588;SDS011;56792;50.644;17.984;2023-05-14T05:20:16;12.70;;;7.20;;
69588;SDS011;56792;50.644;17.984;2023-05-14T05:22:44;11.60;;;7.20;;
69588;SDS011;56792;50.644;17.984;2023-05-14T05:25:12;11.40;;;7.00;;
69588;SDS011;56792;50.644;17.984;2023-05-14T05:27:41;10.90;;;7.10;;
69588;SDS011;56792;50.644;17.984;2023-05-14T05:30:10;11.40;;;6.20;;
69588;SDS011;56792;50.644;17.984;2023-05-14T05:32:39;11.20;;;6.80;;
69588;SDS011;56792;50.644;17.984;2023-05-14T05:35:08;11.10;;;7.00;;
69588;SDS011;56792;50.644;17.984;2023-05-14T05:37:37;9.80;;;6.40;;
69588;SDS011;56792;50.644;17.984;2023-05-14T05:40:07;11.00;;;6.60;;
69588;SDS011;56792;50.644;17.984;2023-05-14T05:42:36;11.30;;;6.30;;
69588;SDS011;56792;50.644;17.984;2023-05-14T05:45:06;11.10;;;6.20;;
69588;SDS011;56792;50.644;17.984;2023-05-14T05:47:35;9.80;;;6.50;;
69588;SDS011;56792;50.644;17.984;2023-05-14T05:50:05;11.50;;;6.60;;
69588;SDS011;56792;50.644;17.984;2023-05-14T05:52:35;10.30;;;6.80;;
69588;SDS011;56792;50.644;17.984;2023-05-14T05:55:05;12.00;;;7.30;;
69588;SDS011;56792;50.644;17.984;2023-05-14T05:57:33;11.20;;;6.50;;
69588;SDS011;56792;50.644;17.984;2023-05-14T06:00:02;10.60;;;6.50;;
69588;SDS011;56792;50.644;17.984;2023-05-14T06:02:39;9.70;;;6.40;;
69588;SDS011;56792;50.644;17.984;2023-05-14T06:05:09;11.60;;;7.20;;
69588;SDS011;56792;50.644;17.984;2023-05-14T06:07:37;10.60;;;7.30;;
69588;SDS011;56792;50.644;17.984;2023-05-14T06:10:07;10.80;;;6.50;;
69588;SDS011;56792;50.644;17.984;2023-05-14T06:12:36;10.50;;;7.00;;
69588;SDS011;56792;50.644;17.984;2023-05-14T06:15:06;12.60;;;6.50;;
69588;SDS011;56792;50.644;17.984;2023-05-14T06:17:35;11.60;;;7.10;;
69588;SDS011;56792;50.644;17.984;2023-05-14T06:20:05;10.10;;;6.70;;
69588;SDS011;56792;50.644;17.984;2023-05-14T06:22:35;10.30;;;6.10;;
69588;SDS011;56792;50.644;17.984;2023-05-14T06:25:04;10.90;;;6.90;;
69588;SDS011;56792;50.644;17.984;2023-05-14T06:27:34;11.10;;;7.30;;
69588;SDS011;56792;50.644;17.984;2023-05-14T06:30:02;10.50;;;7.10;;
69588;SDS011;56792;50.644;17.984;2023-05-14T06:32:32;9.20;;;6.30;;
69588;SDS011;56792;50.644;17.984;2023-05-14T06:35:00;9.80;;;6.10;;
69588;SDS011;56792;50.644;17.984;2023-05-14T06:37:29;11.90;;;7.00;;
69588;SDS011;56792;50.644;17.984;2023-05-14T06:39:58;9.60;;;6.70;;
69588;SDS011;56792;50.644;17.984;2023-05-14T06:42:26;11.00;;;6.50;;
69588;SDS011;56792;50.644;17.984;2023-05-14T06:44:54;9.50;;;6.20;;
69588;SDS011;56792;50.644;17.984;2023-05-14T06:47:23;10.40;;;6.20;;
69588;SDS011;56792;50.644;17.984;2023-05-14T06:49:51;9.50;;;5.90;;
69588;SDS011;56792;50.644;17.984;2023-05-14T06:52:21;10.70;;;6.40;;
69588;SDS011;56792;50.644;17.984;2023-05-14T06:54:49;10.50;;;5.80;;
69588;SDS011;56792;50.644;17.984;2023-05-14T06:57:17;13.20;;;6.10;;
69588;SDS011;56792;50.644;17.984;2023-05-14T06:59:46;9.70;;;5.80;;
69588;SDS011;56792;50.644;17.984;2023-05-14T07:02:14;10.80;;;5.80;;
69588;SDS011;56792;50.644;17.984;2023-05-14T07:04:43;10.20;;;6.40;;
69588;SDS011;56792;50.644;17.984;2023-05-14T07:07:11;10.30;;;6.10;;
69588;SDS011;56792;50.644;17.984;2023-05-14T07:09:41;9.00;;;6.20;;
69588;SDS011;56792;50.644;17.984;2023-05-14T07:12:09;8.70;;;5.90;;
69588;SDS011;56792;50.644;17.984;2023-05-14T07:14:37;9.80;;;5.60;;
69588;SDS011;56792;50.644;17.984;2023-05-14T07:17:06;8.40;;;5.70;;
69588;SDS011;56792;50.644;17.984;2023-05-14T07:19:34;8.20;;;5.20;;
69588;SDS011;56792;50.644;17.984;2023-05-14T07:22:03;7.90;;;5.40;;
69588;SDS011;56792;50.644;17.984;2023-05-14T07:24:31;9.80;;;5.90;;
69588;SDS011;56792;50.644;17.984;2023-05-14T07:26:59;7.60;;;5.50;;
69588;SDS011;56792;50.644;17.984;2023-05-14T07:29:28;9.00;;;6.40;;
69588;SDS011;56792;50.644;17.984;2023-05-14T07:31:56;9.70;;;6.60;;
69588;SDS011;56792;50.644;17.984;2023-05-14T07:34:24;9.50;;;6.50;;
69588;SDS011;56792;50.644;17.984;2023-05-14T07:36:53;11.80;;;6.30;;
69588;SDS011;56792;50.644;17.984;2023-05-14T07:39:21;10.20;;;6.70;;
69588;SDS011;56792;50.644;17.984;2023-05-14T07:41:49;10.00;;;6.40;;
69588;SDS011;56792;50.644;17.984;2023-05-14T07:44:20;11.70;;;7.80;;
69588;SDS011;56792;50.644;17.984;2023-05-14T07:46:48;12.10;;;8.80;;
69588;SDS011;56792;50.644;17.984;2023-05-14T07:49:17;13.90;;;8.90;;
69588;SDS011;56792;50.644;17.984;2023-05-14T07:51:45;10.90;;;7.60;;
69588;SDS011;56792;50.644;17.984;2023-05-14T07:54:13;11.50;;;7.80;;
69588;SDS011;56792;50.644;17.984;2023-05-14T07:56:41;11.10;;;7.80;;
69588;SDS011;56792;50.644;17.984;2023-05-14T07:59:10;12.80;;;8.00;;
69588;SDS011;56792;50.644;17.984;2023-05-14T08:01:38;12.30;;;7.40;;
69588;SDS011;56792;50.644;17.984;2023-05-14T08:04:06;12.40;;;8.90;;
69588;SDS011;56792;50.644;17.984;2023-05-14T08:06:37;11.20;;;7.50;;
69588;SDS011;56792;50.644;17.984;2023-05-14T08:09:05;13.00;;;8.50;;
69588;SDS011;56792;50.644;17.984;2023-05-14T08:11:34;13.50;;;9.80;;
69588;SDS011;56792;50.644;17.984;2023-05-14T08:14:02;15.30;;;11.00;;
69588;SDS011;56792;50.644;17.984;2023-05-14T08:16:30;14.20;;;9.80;;
69588;SDS011;56792;50.644;17.984;2023-05-14T08:18:59;13.30;;;9.90;;
69588;SDS011;56792;50.644;17.984;2023-05-14T08:21:27;15.20;;;11.90;;
69588;SDS011;56792;50.644;17.984;2023-05-14T08:23:55;13.10;;;9.90;;
69588;SDS011;56792;50.644;17.984;2023-05-14T08:26:24;13.60;;;10.00;;
69588;SDS011;56792;50.644;17.984;2023-05-14T08:28:52;14.60;;;10.80;;
69588;SDS011;56792;50.644;17.984;2023-05-14T08:31:20;16.40;;;10.70;;
69588;SDS011;56792;50.644;17.984;2023-05-14T08:33:48;15.20;;;11.20;;
69588;SDS011;56792;50.644;17.984;2023-05-14T08:36:17;16.70;;;11.40;;
69588;SDS011;56792;50.644;17.984;2023-05-14T08:38:45;20.50;;;12.80;;
69588;SDS011;56792;50.644;17.984;2023-05-14T08:41:14;16.00;;;11.50;;
69588;SDS011;56792;50.644;17.984;2023-05-14T08:43:46;18.90;;;11.90;;
69588;SDS011;56792;50.644;17.984;2023-05-14T08:46:23;17.10;;;12.70;;
69588;SDS011;56792;50.644;17.984;2023-05-14T08:49:02;14.60;;;11.60;;
69588;SDS011;56792;50.644;17.984;2023-05-14T08:51:34;17.00;;;11.40;;
69588;SDS011;56792;50.644;17.984;2023-05-14T08:54:04;14.90;;;10.70;;
69588;SDS011;56792;50.644;17.984;2023-05-14T08:56:33;15.00;;;10.70;;
69588;SDS011;56792;50.644;17.984;2023-05-14T08:59:01;12.70;;;9.40;;
69588;SDS011;56792;50.644;17.984;2023-05-14T09:01:30;14.50;;;9.90;;
69588;SDS011;56792;50.644;17.984;2023-05-14T09:03:59;12.80;;;10.50;;
69588;SDS011;56792;50.644;17.984;2023-05-14T09:06:32;13.60;;;10.50;;
69588;SDS011;56792;50.644;17.984;2023-05-14T09:09:02;12.30;;;10.20;;
69588;SDS011;56792;50.644;17.984;2023-05-14T09:11:30;13.30;;;8.80;;
69588;SDS011;56792;50.644;17.984;2023-05-14T09:13:58;16.60;;;10.00;;
69588;SDS011;56792;50.644;17.984;2023-05-14T09:16:27;14.40;;;10.30;;
69588;SDS011;56792;50.644;17.984;2023-05-14T09:18:56;15.90;;;12.10;;
69588;SDS011;56792;50.644;17.984;2023-05-14T09:21:24;13.10;;;9.80;;
69588;SDS011;56792;50.644;17.984;2023-05-14T09:23:56;13.60;;;9.80;;
69588;SDS011;56792;50.644;17.984;2023-05-14T09:26:26;13.00;;;10.00;;
69588;SDS011;56792;50.644;17.984;2023-05-14T09:28:58;11.70;;;9.30;;
69588;SDS011;56792;50.644;17.984;2023-05-14T09:31:28;12.30;;;9.00;;
69588;SDS011;56792;50.644;17.984;2023-05-14T09:33:58;12.70;;;8.10;;
69588;SDS011;56792;50.644;17.984;2023-05-14T09:36:27;8.90;;;7.60;;
69588;SDS011;56792;50.644;17.984;2023-05-14T09:38:56;12.70;;;8.00;;
69588;SDS011;56792;50.644;17.984;2023-05-14T09:41:24;10.90;;;7.20;;
69588;SDS011;56792;50.644;17.984;2023-05-14T09:43:53;12.50;;;9.20;;
69588;SDS011;56792;50.644;17.984;2023-05-14T09:46:22;12.00;;;9.40;;
69588;SDS011;56792;50.644;17.984;2023-05-14T09:48:56;10.80;;;8.10;;
69588;SDS011;56792;50.644;17.984;2023-05-14T09:51:24;10.70;;;8.00;;
69588;SDS011;56792;50.644;17.984;2023-05-14T09:53:55;10.70;;;8.60;;
69588;SDS011;56792;50.644;17.984;2023-05-14T09:56:24;14.20;;;9.80;;
69588;SDS011;56792;50.644;17.984;2023-05-14T09:58:52;14.50;;;9.90;;
69588;SDS011;56792;50.644;17.984;2023-05-14T10:01:22;14.00;;;10.40;;
69588;SDS011;56792;50.644;17.984;2023-05-14T10:03:52;11.90;;;9.10;;
69588;SDS011;56792;50.644;17.984;2023-05-14T10:06:24;19.30;;;7.70;;
69588;SDS011;56792;50.644;17.984;2023-05-14T10:08:55;11.80;;;9.20;;
69588;SDS011;56792;50.644;17.984;2023-05-14T10:11:30;10.20;;;8.00;;
69588;SDS011;56792;50.644;17.984;2023-05-14T10:14:02;30.20;;;9.40;;
69588;SDS011;56792;50.644;17.984;2023-05-14T10:16:36;11.30;;;8.10;;
69588;SDS011;56792;50.644;17.984;2023-05-14T10:19:09;10.40;;;7.30;;
69588;SDS011;56792;50.644;17.984;2023-05-14T10:21:40;7.80;;;6.00;;
69588;SDS011;56792;50.644;17.984;2023-05-14T10:24:12;8.40;;;6.50;;
69588;SDS011;56792;50.644;17.984;2023-05-14T10:26:41;8.20;;;6.50;;
69588;SDS011;56792;50.644;17.984;2023-05-14T10:29:11;10.00;;;7.40;;
69588;SDS011;56792;50.644;17.984;2023-05-14T10:31:50;8.70;;;6.10;;
69588;SDS011;56792;50.644;17.984;2023-05-14T10:34:36;10.70;;;6.20;;
69588;SDS011;56792;50.644;17.984;2023-05-14T10:37:08;8.40;;;6.10;;
69588;SDS011;56792;50.644;17.984;2023-05-14T10:39:42;8.40;;;6.30;;
69588;SDS011;56792;50.644;17.984;2023-05-14T10:42:13;8.00;;;5.70;;
69588;SDS011;56792;50.644;17.984;2023-05-14T10:44:55;7.40;;;5.60;;
69588;SDS011;56792;50.644;17.984;2023-05-14T10:47:25;7.60;;;5.50;;
69588;SDS011;56792;50.644;17.984;2023-05-14T10:49:58;9.30;;;5.70;;
69588;SDS011;56792;50.644;17.984;2023-05-14T10:52:29;8.60;;;6.20;;
69588;SDS011;56792;50.644;17.984;2023-05-14T10:54:59;6.90;;;5.60;;
69588;SDS011;56792;50.644;17.984;2023-05-14T10:57:29;7.80;;;5.70;;
69588;SDS011;56792;50.644;17.984;2023-05-14T10:59:59;7.80;;;5.80;;
69588;SDS011;56792;50.644;17.984;2023-05-14T11:02:30;8.70;;;6.60;;
69588;SDS011;56792;50.644;17.984;2023-05-14T11:05:01;9.60;;;5.90;;
69588;SDS011;56792;50.644;17.984;2023-05-14T11:07:32;7.70;;;5.60;;
69588;SDS011;56792;50.644;17.984;2023-05-14T11:10:04;7.30;;;5.70;;
69588;SDS011;56792;50.644;17.984;2023-05-14T11:12:34;9.80;;;5.00;;
69588;SDS011;56792;50.644;17.984;2023-05-14T11:15:06;7.30;;;5.70;;
69588;SDS011;56792;50.644;17.984;2023-05-14T11:17:38;6.40;;;5.20;;
69588;SDS011;56792;50.644;17.984;2023-05-14T11:20:09;6.80;;;5.10;;
69588;SDS011;56792;50.644;17.984;2023-05-14T11:22:40;9.10;;;5.40;;
69588;SDS011;56792;50.644;17.984;2023-05-14T11:25:10;6.30;;;5.00;;
69588;SDS011;56792;50.644;17.984;2023-05-14T11:27:41;7.20;;;5.30;;
69588;SDS011;56792;50.644;17.984;2023-05-14T11:30:14;7.40;;;5.50;;
69588;SDS011;56792;50.644;17.984;2023-05-14T11:32:44;6.60;;;5.30;;
69588;SDS011;56792;50.644;17.984;2023-05-14T11:35:14;7.00;;;5.20;;
69588;SDS011;56792;50.644;17.984;2023-05-14T11:37:47;6.10;;;4.20;;
69588;SDS011;56792;50.644;17.984;2023-05-14T11:40:18;6.20;;;5.10;;
69588;SDS011;56792;50.644;17.984;2023-05-14T11:42:50;6.20;;;4.50;;
69588;SDS011;56792;50.644;17.984;2023-05-14T11:45:25;6.60;;;5.30;;
69588;SDS011;56792;50.644;17.984;2023-05-14T11:47:55;6.50;;;4.90;;
69588;SDS011;56792;50.644;17.984;2023-05-14T11:50:23;7.80;;;5.60;;
69588;SDS011;56792;50.644;17.984;2023-05-14T11:52:56;6.10;;;4.90;;
69588;SDS011;56792;50.644;17.984;2023-05-14T11:55:24;6.30;;;5.00;;
69588;SDS011;56792;50.644;17.984;2023-05-14T11:57:52;6.60;;;4.90;;
69588;SDS011;56792;50.644;17.984;2023-05-14T12:00:21;6.50;;;4.90;;
69588;SDS011;56792;50.644;17.984;2023-05-14T12:02:51;7.80;;;5.20;;
69588;SDS011;56792;50.644;17.984;2023-05-14T12:05:20;7.80;;;5.20;;
69588;SDS011;56792;50.644;17.984;2023-05-14T12:07:49;8.00;;;5.90;;
69588;SDS011;56792;50.644;17.984;2023-05-14T12:10:17;7.50;;;5.50;;
69588;SDS011;56792;50.644;17.984;2023-05-14T12:12:47;8.60;;;5.60;;
69588;SDS011;56792;50.644;17.984;2023-05-14T12:15:16;7.90;;;5.10;;
69588;SDS011;56792;50.644;17.984;2023-05-14T12:17:49;7.40;;;5.50;;
69588;SDS011;56792;50.644;17.984;2023-05-14T12:20:18;5.80;;;5.00;;
69588;SDS011;56792;50.644;17.984;2023-05-14T12:22:46;7.30;;;5.80;;
69588;SDS011;56792;50.644;17.984;2023-05-14T12:25:14;8.70;;;6.10;;
69588;SDS011;56792;50.644;17.984;2023-05-14T12:27:44;7.40;;;5.30;;
69588;SDS011;56792;50.644;17.984;2023-05-14T12:30:13;6.70;;;5.50;;
69588;SDS011;56792;50.644;17.984;2023-05-14T12:32:42;8.40;;;5.90;;
69588;SDS011;56792;50.644;17.984;2023-05-14T12:35:10;7.20;;;5.60;;
69588;SDS011;56792;50.644;17.984;2023-05-14T12:37:38;8.70;;;5.30;;
69588;SDS011;56792;50.644;17.984;2023-05-14T12:40:08;7.60;;;5.60;;
69588;SDS011;56792;50.644;17.984;2023-05-14T12:42:37;9.00;;;6.80;;
69588;SDS011;56792;50.644;17.984;2023-05-14T12:45:07;6.70;;;5.30;;
69588;SDS011;56792;50.644;17.984;2023-05-14T12:47:37;8.60;;;6.40;;
69588;SDS011;56792;50.644;17.984;2023-05-14T12:50:07;6.50;;;5.20;;
69588;SDS011;56792;50.644;17.984;2023-05-14T12:52:36;6.30;;;4.90;;
69588;SDS011;56792;50.644;17.984;2023-05-14T12:55:05;6.90;;;5.40;;
69588;SDS011;56792;50.644;17.984;2023-05-14T12:57:35;5.50;;;4.50;;
69588;SDS011;56792;50.644;17.984;2023-05-14T13:00:07;8.10;;;4.90;;
69588;SDS011;56792;50.644;17.984;2023-05-14T13:02:37;7.00;;;4.20;;
69588;SDS011;56792;50.644;17.984;2023-05-14T13:05:06;6.40;;;4.60;;
69588;SDS011;56792;50.644;17.984;2023-05-14T13:07:35;9.10;;;5.40;;
69588;SDS011;56792;50.644;17.984;2023-05-14T13:10:04;5.90;;;4.20;;
69588;SDS011;56792;50.644;17.984;2023-05-14T13:12:34;9.50;;;4.30;;
69588;SDS011;56792;50.644;17.984;2023-05-14T13:15:02;6.00;;;4.10;;
69588;SDS011;56792;50.644;17.984;2023-05-14T13:17:31;6.50;;;4.70;;
69588;SDS011;56792;50.644;17.984;2023-05-14T13:19:59;6.50;;;4.80;;
69588;SDS011;56792;50.644;17.984;2023-05-14T13:22:28;6.00;;;4.80;;
69588;SDS011;56792;50.644;17.984;2023-05-14T13:24:56;6.30;;;5.00;;
69588;SDS011;56792;50.644;17.984;2023-05-14T13:27:24;6.40;;;4.40;;
69588;SDS011;56792;50.644;17.984;2023-05-14T13:29:52;7.50;;;4.90;;
69588;SDS011;56792;50.644;17.984;2023-05-14T13:32:21;6.60;;;4.60;;
69588;SDS011;56792;50.644;17.984;2023-05-14T13:34:50;6.00;;;4.50;;
69588;SDS011;56792;50.644;17.984;2023-05-14T13:37:19;7.80;;;4.80;;
69588;SDS011;56792;50.644;17.984;2023-05-14T13:39:47;6.00;;;4.50;;
69588;SDS011;56792;50.644;17.984;2023-05-14T13:42:15;7.70;;;4.60;;
69588;SDS011;56792;50.644;17.984;2023-05-14T13:44:44;5.60;;;4.30;;
69588;SDS011;56792;50.644;17.984;2023-05-14T13:47:12;6.50;;;4.40;;
69588;SDS011;56792;50.644;17.984;2023-05-14T13:49:40;6.80;;;4.90;;
69588;SDS011;56792;50.644;17.984;2023-05-14T13:52:08;5.10;;;4.10;;
69588;SDS011;56792;50.644;17.984;2023-05-14T13:54:36;7.80;;;4.50;;
69588;SDS011;56792;50.644;17.984;2023-05-14T13:57:05;5.90;;;4.70;;
69588;SDS011;56792;50.644;17.984;2023-05-14T13:59:33;7.10;;;4.70;;
69588;SDS011;56792;50.644;17.984;2023-05-14T14:02:02;7.00;;;4.10;;
69588;SDS011;56792;50.644;17.984;2023-05-14T14:04:31;6.60;;;5.00;;
69588;SDS011;56792;50.644;17.984;2023-05-14T14:06:59;7.20;;;4.60;;
69588;SDS011;56792;50.644;17.984;2023-05-14T14:09:27;6.40;;;4.80;;
69588;SDS011;56792;50.644;17.984;2023-05-14T14:12:00;6.20;;;4.70;;
69588;SDS011;56792;50.644;17.984;2023-05-14T14:14:29;7.30;;;4.60;;
69588;SDS011;56792;50.644;17.984;2023-05-14T14:16:58;6.30;;;4.30;;
69588;SDS011;56792;50.644;17.984;2023-05-14T14:19:26;6.40;;;4.60;;
69588;SDS011;56792;50.644;17.984;2023-05-14T14:21:54;7.10;;;4.80;;
69588;SDS011;56792;50.644;17.984;2023-05-14T14:24:22;5.30;;;4.10;;
69588;SDS011;56792;50.644;17.984;2023-05-14T14:26:50;5.40;;;4.30;;
69588;SDS011;56792;50.644;17.984;2023-05-14T14:29:19;7.20;;;4.20;;
69588;SDS011;56792;50.644;17.984;2023-05-14T14:31:49;5.80;;;4.20;;
69588;SDS011;56792;50.644;17.984;2023-05-14T14:34:17;5.80;;;4.30;;
69588;SDS011;56792;50.644;17.984;2023-05-14T14:36:45;7.10;;;4.80;;
69588;SDS011;56792;50.644;17.984;2023-05-14T14:39:14;6.40;;;4.40;;